createdAt,value
2022-12-12T00:01:40.729Z,98821.07
2022-12-12T00:04:27.095Z,98820.75
2022-12-12T00:07:13.767Z,98813.73
2022-12-12T00:10:00.757Z,98811.10
2022-12-12T00:12:47.552Z,98809.65
2022-12-12T00:15:34.343Z,98807.78
2022-12-12T00:18:20.858Z,98807.80
2022-12-12T00:21:13.740Z,98807.48
2022-12-12T00:24:00.512Z,98813.34
2022-12-12T00:26:47.820Z,98813.61
2022-12-12T00:29:34.849Z,98815.66
2022-12-12T00:32:21.589Z,98811.65
2022-12-12T00:35:08.574Z,98810.29
2022-12-12T00:37:57.337Z,98813.24
2022-12-12T00:40:43.872Z,98815.67
2022-12-12T00:43:30.473Z,98814.33
2022-12-12T00:46:19.866Z,98805.65
2022-12-12T00:49:06.726Z,98805.73
2022-12-12T00:51:53.064Z,98802.70
2022-12-12T00:54:39.700Z,98796.27
2022-12-12T00:57:26.361Z,98799.45
2022-12-12T01:00:14.568Z,98800.87
2022-12-12T01:03:01.017Z,98802.76
2022-12-12T01:05:47.457Z,98800.91
2022-12-12T01:08:33.888Z,98798.55
2022-12-12T01:11:21.288Z,98794.30
2022-12-12T01:14:07.931Z,98790.09
2022-12-12T01:16:54.320Z,98789.70
2022-12-12T01:19:40.825Z,98783.91
2022-12-12T01:22:27.513Z,98780.75
2022-12-12T01:25:15.333Z,98773.59
2022-12-12T01:28:04.762Z,98774.46
2022-12-12T01:30:51.241Z,98769.79
2022-12-12T01:33:38.476Z,98770.19
2022-12-12T01:36:24.885Z,98771.34
2022-12-12T01:39:11.395Z,98768.68
2022-12-12T01:41:57.818Z,98760.74
2022-12-12T01:44:52.941Z,98756.21
2022-12-12T01:47:39.736Z,98757.33
2022-12-12T01:50:26.405Z,98752.20
2022-12-12T01:53:18.176Z,98754.62
2022-12-12T01:56:12.401Z,98752.37
2022-12-12T01:59:02.203Z,98756.73
2022-12-12T02:01:48.975Z,98756.29
2022-12-12T02:04:36.185Z,98758.03
2022-12-12T02:07:23.001Z,98758.06
2022-12-12T02:10:09.700Z,98758.96
2022-12-12T02:13:01.312Z,98755.49
2022-12-12T02:16:04.314Z,98759.67
2022-12-12T02:19:55.613Z,98761.84
2022-12-12T02:23:04.598Z,98761.86
2022-12-12T02:26:10.339Z,98757.64
2022-12-12T02:29:19.924Z,98753.79
2022-12-12T02:32:24.673Z,98757.42
2022-12-12T02:35:21.271Z,98761.98
2022-12-12T02:38:36.112Z,98766.30
2022-12-12T02:41:42.798Z,98766.16
2022-12-12T02:44:40.003Z,98761.67
2022-12-12T02:47:32.449Z,98769.77
2022-12-12T02:50:24.570Z,98769.78
2022-12-12T02:53:10.937Z,98768.48
2022-12-12T02:56:44.460Z,98767.55
2022-12-12T02:59:38.925Z,98765.33
2022-12-12T03:02:45.668Z,98764.19
2022-12-12T03:06:01.795Z,98762.39
2022-12-12T03:09:24.710Z,98761.90
2022-12-12T03:12:17.911Z,98755.53
2022-12-12T03:15:22.271Z,98757.08
2022-12-12T03:18:21.560Z,98757.80
2022-12-12T03:21:17.793Z,98753.45
2022-12-12T03:24:14.664Z,98745.55
2022-12-12T03:27:19.394Z,98746.95
2022-12-12T03:30:11.571Z,98745.75
2022-12-12T03:33:09.886Z,98746.80
2022-12-12T03:36:03.372Z,98743.52
2022-12-12T03:38:57.412Z,98744.73
2022-12-12T03:41:51.941Z,98745.23
2022-12-12T03:44:51.463Z,98741.79
2022-12-12T03:47:46.935Z,98744.92
2022-12-12T03:50:42.856Z,98744.20
2022-12-12T03:53:53.938Z,98746.20
2022-12-12T03:56:49.560Z,98741.04
2022-12-12T03:59:42.470Z,98742.08
2022-12-12T04:02:41.457Z,98739.19
2022-12-12T04:06:06.023Z,98732.95
2022-12-12T04:09:15.709Z,98728.21
2022-12-12T04:12:40.652Z,98728.11
2022-12-12T04:15:32.729Z,98726.19
2022-12-12T04:18:53.577Z,98724.16
2022-12-12T04:22:18.064Z,98721.27
2022-12-12T04:25:17.242Z,98717.42
2022-12-12T04:28:07.579Z,98717.08
2022-12-12T04:30:56.167Z,98718.58
2022-12-12T04:33:49.794Z,98712.27
2022-12-12T04:36:37.665Z,98708.14
2022-12-12T04:39:29.352Z,98705.84
2022-12-12T04:42:21.794Z,98701.77
2022-12-12T04:45:19.937Z,98698.77
2022-12-12T04:48:09.754Z,98699.58
2022-12-12T04:50:59.374Z,98700.73
2022-12-12T04:53:56.813Z,98701.25
2022-12-12T04:56:46.220Z,98700.98
2022-12-12T04:59:33.573Z,98701.94
2022-12-12T05:02:57.885Z,98700.45
2022-12-12T05:05:49.985Z,98700.71
2022-12-12T05:08:41.492Z,98700.02
2022-12-12T05:11:29.089Z,98694.70
2022-12-12T05:14:17.429Z,98692.63
2022-12-12T05:17:08.641Z,98689.67
2022-12-12T05:19:56.129Z,98687.38
2022-12-12T05:22:43.837Z,98687.73
2022-12-12T05:25:30.794Z,98686.06
2022-12-12T05:28:17.305Z,98688.08
2022-12-12T05:31:03.963Z,98687.07
2022-12-12T05:33:50.761Z,98685.52
2022-12-12T05:36:37.240Z,98680.23
2022-12-12T05:39:23.969Z,98674.41
2022-12-12T05:42:10.703Z,98675.11
2022-12-12T05:44:57.259Z,98673.58
2022-12-12T05:47:43.761Z,98674.80
2022-12-12T05:50:30.249Z,98674.97
2022-12-12T05:53:16.668Z,98672.63
2022-12-12T05:56:02.960Z,98672.54
2022-12-12T05:58:49.311Z,98671.07
2022-12-12T06:01:35.689Z,98671.20
2022-12-12T06:04:22.479Z,98669.33
2022-12-12T06:07:09.204Z,98676.88
2022-12-12T06:09:55.917Z,98681.84
2022-12-12T06:12:42.672Z,98682.17
2022-12-12T06:15:29.012Z,98684.82
2022-12-12T06:18:15.741Z,98688.70
2022-12-12T06:21:08.205Z,98687.95
2022-12-12T06:23:54.517Z,98687.11
2022-12-12T06:26:41.045Z,98692.23
2022-12-12T06:29:27.359Z,98693.55
2022-12-12T06:32:14.014Z,98692.52
2022-12-12T06:35:00.505Z,98694.23
2022-12-12T06:37:48.554Z,98691.39
2022-12-12T06:40:34.920Z,98692.71
2022-12-12T06:43:21.478Z,98692.77
2022-12-12T06:46:12.586Z,98694.14
2022-12-12T06:48:58.974Z,98695.23
2022-12-12T06:51:45.420Z,98694.89
2022-12-12T06:54:31.876Z,98695.05
2022-12-12T06:57:18.297Z,98692.83
2022-12-12T07:00:05.448Z,98694.94
2022-12-12T07:02:51.638Z,98694.16
2022-12-12T07:05:38.107Z,98694.96
2022-12-12T07:08:25.168Z,98694.84
2022-12-12T07:11:14.601Z,98691.48
2022-12-12T07:14:03.821Z,98692.23
2022-12-12T07:16:50.565Z,98695.54
2022-12-12T07:19:37.009Z,98702.73
2022-12-12T07:22:23.300Z,98703.20
2022-12-12T07:25:10.129Z,98700.67
2022-12-12T07:27:57.029Z,98702.75
2022-12-12T07:30:46.608Z,98704.48
2022-12-12T07:33:42.628Z,98707.09
2022-12-12T07:36:30.454Z,98708.31
2022-12-12T07:39:20.659Z,98707.02
2022-12-12T07:42:07.597Z,98709.75
2022-12-12T07:44:53.909Z,98710.09
2022-12-12T07:47:40.048Z,98708.67
2022-12-12T07:50:26.280Z,98710.40
2022-12-12T07:53:12.609Z,98707.77
2022-12-12T07:55:58.950Z,98706.42
2022-12-12T07:58:46.076Z,98706.51
2022-12-12T08:01:32.617Z,98703.75
2022-12-12T08:04:19.072Z,98704.17
2022-12-12T08:07:08.588Z,98702.09
2022-12-12T08:09:55.462Z,98701.59
2022-12-12T08:12:41.892Z,98701.26
2022-12-12T08:15:28.382Z,98701.05
2022-12-12T08:18:14.848Z,98704.73
2022-12-12T08:21:01.103Z,98707.92
2022-12-12T08:23:47.587Z,98702.50
2022-12-12T08:26:36.258Z,98707.92
2022-12-12T08:29:22.642Z,98710.84
2022-12-12T08:32:09.024Z,98710.64
2022-12-12T08:34:57.024Z,98706.87
2022-12-12T08:37:43.618Z,98707.70
2022-12-12T08:40:30.125Z,98708.23
2022-12-12T08:43:17.086Z,98710.48
2022-12-12T08:46:04.780Z,98707.92
2022-12-12T08:48:51.456Z,98706.24
2022-12-12T08:51:39.692Z,98705.98
2022-12-12T08:54:26.344Z,98706.27
2022-12-12T08:57:13.125Z,98711.33
2022-12-12T08:59:59.431Z,98710.47
2022-12-12T09:02:46.283Z,98707.98
2022-12-12T09:05:33.667Z,98713.17
2022-12-12T09:08:21.565Z,98708.41
2022-12-12T09:11:09.280Z,98710.75
2022-12-12T09:13:55.766Z,98711.26
2022-12-12T09:16:42.572Z,98710.23
2022-12-12T09:19:29.203Z,98706.75
2022-12-12T09:22:17.936Z,98713.40
2022-12-12T09:25:06.041Z,98707.88
2022-12-12T09:27:52.782Z,98708.96
2022-12-12T09:30:40.449Z,98709.25
2022-12-12T09:33:27.514Z,98711.44
2022-12-12T09:36:15.299Z,98707.17
2022-12-12T09:39:02.381Z,98704.49
2022-12-12T09:41:49.268Z,98701.56
2022-12-12T09:44:36.672Z,98707.66
2022-12-12T09:47:43.429Z,98717.11
2022-12-12T09:50:38.333Z,98726.80
2022-12-12T09:53:26.863Z,98725.15
2022-12-12T09:56:37.940Z,98724.46
2022-12-12T09:59:33.940Z,98733.55
2022-12-12T10:02:32.892Z,98732.05
2022-12-12T10:05:28.885Z,98728.57
2022-12-12T10:08:18.681Z,98731.84
2022-12-12T10:11:29.426Z,98728.21
2022-12-12T10:14:19.097Z,98735.86
2022-12-12T10:17:12.213Z,98736.36
2022-12-12T10:20:26.329Z,98732.79
2022-12-12T10:23:25.487Z,98737.76
2022-12-12T10:26:20.934Z,98733.02
2022-12-12T10:29:15.768Z,98731.73
2022-12-12T10:32:27.822Z,98726.52
2022-12-12T10:35:35.054Z,98728.41
2022-12-12T10:38:50.009Z,98723.73
2022-12-12T10:41:42.298Z,98722.52
2022-12-12T10:44:42.940Z,98726.23
2022-12-12T10:47:34.777Z,98724.77
2022-12-12T10:50:35.211Z,98721.63
2022-12-12T10:53:23.318Z,98724.76
2022-12-12T10:56:18.921Z,98725.40
2022-12-12T10:59:05.655Z,98723.86
2022-12-12T11:02:14.460Z,98727.50
2022-12-12T11:05:06.006Z,98727.19
2022-12-12T11:08:18.476Z,98727.15
2022-12-12T11:11:18.332Z,98731.56
2022-12-12T11:14:22.457Z,98732.80
2022-12-12T11:17:32.302Z,98730.02
2022-12-12T11:20:18.906Z,98729.83
2022-12-12T11:23:05.231Z,98734.09
2022-12-12T11:26:16.674Z,98733.09
2022-12-12T11:29:03.391Z,98733.36
2022-12-12T11:31:50.137Z,98735.42
2022-12-12T11:34:40.030Z,98732.66
2022-12-12T11:37:37.999Z,98729.95
2022-12-12T11:40:30.504Z,98731.33
2022-12-12T11:43:25.184Z,98730.83
2022-12-12T11:46:14.730Z,98728.87
2022-12-12T11:49:03.771Z,98731.90
2022-12-12T11:51:50.228Z,98731.22
2022-12-12T11:54:36.961Z,98734.32
2022-12-12T11:57:50.571Z,98739.11
2022-12-12T12:00:49.298Z,98740.98
2022-12-12T12:03:50.990Z,98745.84
2022-12-12T12:07:01.810Z,98747.23
2022-12-12T12:09:57.731Z,98751.50
2022-12-12T12:13:05.584Z,98751.39
2022-12-12T12:16:11.083Z,98754.54
2022-12-12T12:19:03.846Z,98754.48
2022-12-12T12:22:08.767Z,98756.18
2022-12-12T12:25:06.991Z,98758.11
2022-12-12T12:28:31.185Z,98757.96
2022-12-12T12:31:54.711Z,98761.88
2022-12-12T12:34:59.414Z,98758.66
2022-12-12T12:37:48.733Z,98764.23
2022-12-12T12:41:02.687Z,98760.48
2022-12-12T12:44:02.466Z,98763.32
2022-12-12T12:47:07.489Z,98767.73
2022-12-12T12:50:14.944Z,98763.00
2022-12-12T12:53:17.402Z,98760.48
2022-12-12T12:56:15.732Z,98770.95
2022-12-12T12:59:10.048Z,98772.58
2022-12-12T13:02:01.643Z,98774.64
2022-12-12T13:05:23.878Z,98771.05
2022-12-12T13:08:32.144Z,98776.97
2022-12-12T13:11:25.475Z,98775.73
2022-12-12T13:14:30.279Z,98779.69
2022-12-12T13:17:41.113Z,98782.30
2022-12-12T13:20:29.758Z,98783.09
2022-12-12T13:23:56.234Z,98780.63
2022-12-12T13:27:01.223Z,98786.98
2022-12-12T13:29:57.997Z,98785.92
2022-12-12T13:32:57.474Z,98789.92
2022-12-12T13:35:48.084Z,98794.73
2022-12-12T13:38:35.865Z,98795.83
2022-12-12T13:41:22.741Z,98801.11
2022-12-12T13:44:33.319Z,98806.72
2022-12-12T13:47:22.702Z,98807.04
2022-12-12T13:50:09.819Z,98810.16
2022-12-12T13:53:15.282Z,98810.23
2022-12-12T13:56:34.684Z,98807.58
2022-12-12T13:59:25.389Z,98810.20
2022-12-12T14:02:32.475Z,98814.31
2022-12-12T14:05:27.876Z,98811.78
2022-12-12T14:08:28.531Z,98811.73
2022-12-12T14:11:36.755Z,98813.27
2022-12-12T14:14:25.280Z,98814.13
2022-12-12T14:17:25.450Z,98815.59
2022-12-12T14:20:27.369Z,98815.77
2022-12-12T14:23:13.576Z,98819.41
2022-12-12T14:26:00.468Z,98814.19
2022-12-12T14:28:47.740Z,98821.05
2022-12-12T14:31:42.008Z,98822.83
2022-12-12T14:39:01.813Z,98822.37
2022-12-12T14:41:48.996Z,98818.02
2022-12-12T14:44:47.830Z,98817.69
2022-12-12T14:47:35.923Z,98820.28
2022-12-12T14:50:22.562Z,98826.02
2022-12-12T14:53:29.269Z,98831.41
2022-12-12T14:56:24.518Z,98828.69
2022-12-12T14:59:31.321Z,98829.25
2022-12-12T15:02:21.007Z,98834.10
2022-12-12T15:05:08.266Z,98834.77
2022-12-12T15:07:59.845Z,98835.61
2022-12-12T15:10:58.681Z,98837.13
2022-12-12T15:13:55.382Z,98840.38
2022-12-12T15:16:48.586Z,98841.95
2022-12-12T15:19:44.935Z,98840.83
2022-12-12T15:22:34.906Z,98839.11
2022-12-12T15:25:25.236Z,98842.11
2022-12-12T15:28:16.831Z,98844.71
2022-12-12T15:31:03.368Z,98844.86
2022-12-12T15:33:50.016Z,98846.28
2022-12-12T15:36:36.222Z,98847.75
2022-12-12T15:39:25.223Z,98846.50
2022-12-12T15:42:14.454Z,98853.83
2022-12-12T15:45:00.992Z,98848.27
2022-12-12T15:47:55.118Z,98845.34
2022-12-12T15:50:42.098Z,98846.23
2022-12-12T15:53:38.059Z,98850.32
2022-12-12T15:57:52.301Z,98852.98
2022-12-12T16:00:39.837Z,98855.44
2022-12-12T16:03:26.478Z,98855.68
2022-12-12T16:06:17.385Z,98862.64
2022-12-12T16:09:17.683Z,98863.67
2022-12-12T16:12:04.195Z,98863.21
2022-12-12T16:14:50.614Z,98865.46
2022-12-12T16:17:37.282Z,98868.85
2022-12-12T16:20:30.156Z,98870.68
2022-12-12T16:23:32.868Z,98868.51
2022-12-12T16:26:19.322Z,98869.92
2022-12-12T16:29:05.442Z,98871.39
2022-12-12T16:31:52.252Z,98873.79
2022-12-12T16:34:38.499Z,98870.31
2022-12-12T16:37:24.909Z,98876.88
2022-12-12T16:40:15.808Z,98875.66
2022-12-12T16:43:09.444Z,98876.85
2022-12-12T16:45:57.927Z,98879.52
2022-12-12T16:48:44.369Z,98885.43
2022-12-12T16:51:33.976Z,98885.69
2022-12-12T16:54:20.244Z,98889.73
2022-12-12T16:57:06.578Z,98888.99
2022-12-12T16:59:52.909Z,98890.99
2022-12-12T17:02:40.323Z,98891.02
2022-12-12T17:05:28.272Z,98897.29
2022-12-12T17:08:16.110Z,98897.14
2022-12-12T17:11:10.056Z,98897.35
2022-12-12T17:13:57.558Z,98903.48
2022-12-12T17:16:44.067Z,98904.73
2022-12-12T17:19:31.372Z,98902.58
2022-12-12T17:22:18.469Z,98907.09
2022-12-12T17:25:05.364Z,98911.70
2022-12-12T17:27:52.378Z,98915.18
2022-12-12T17:30:39.754Z,98919.52
2022-12-12T17:33:27.146Z,98927.96
2022-12-12T17:36:13.923Z,98925.61
2022-12-12T17:39:00.226Z,98926.59
2022-12-12T17:41:46.572Z,98931.69
2022-12-12T17:44:32.774Z,98932.86
2022-12-12T17:47:19.247Z,98929.37
2022-12-12T17:50:06.126Z,98932.77
2022-12-12T17:58:41.415Z,98944.95
2022-12-12T18:01:31.548Z,98948.52
2022-12-12T18:04:20.849Z,98950.58
2022-12-12T18:07:09.790Z,98955.14
2022-12-12T18:09:56.511Z,98953.33
2022-12-12T18:12:48.255Z,98950.61
2022-12-12T18:15:37.834Z,98958.11
2022-12-12T18:18:26.634Z,98959.50
2022-12-12T18:21:43.301Z,98959.88
2022-12-12T18:24:29.579Z,98962.25
2022-12-12T18:27:16.116Z,98966.43
2022-12-12T18:30:02.493Z,98967.20
2022-12-12T18:32:48.678Z,98964.82
2022-12-12T18:35:35.220Z,98971.16
2022-12-12T18:38:21.539Z,98970.98
2022-12-12T18:41:08.309Z,98971.16
2022-12-12T18:43:55.724Z,98972.30
2022-12-12T18:46:43.826Z,98971.41
2022-12-12T18:49:30.198Z,98984.45
2022-12-12T18:52:16.883Z,98987.30
2022-12-12T18:55:03.821Z,98986.75
2022-12-12T18:57:50.081Z,98992.81
2022-12-12T19:00:40.086Z,99001.11
2022-12-12T19:03:26.350Z,99001.08
2022-12-12T19:06:15.710Z,99008.95
2022-12-12T19:09:08.372Z,99010.96
2022-12-12T19:12:01.901Z,99013.79
2022-12-12T19:15:18.777Z,99018.04
2022-12-12T19:17:56.168Z,99023.61
2022-12-12T19:20:42.929Z,99029.30
2022-12-12T19:23:29.413Z,99030.99
2022-12-12T19:26:18.896Z,99034.18
2022-12-12T19:29:08.206Z,99035.23
2022-12-12T19:31:58.710Z,99042.00
2022-12-12T19:34:45.491Z,99046.39
2022-12-12T19:37:32.402Z,99047.43
2022-12-12T19:40:19.006Z,99054.63
2022-12-12T19:43:05.657Z,99054.91
2022-12-12T19:46:01.753Z,99057.05
2022-12-12T19:48:49.032Z,99061.45
2022-12-12T19:51:39.083Z,99069.00
2022-12-12T19:54:25.343Z,99071.21
2022-12-12T19:57:11.779Z,99074.98
2022-12-12T19:59:58.410Z,99078.48
2022-12-12T20:02:45.719Z,99084.77
2022-12-12T20:05:32.529Z,99090.10
2022-12-12T20:08:19.119Z,99093.44
2022-12-12T20:11:15.774Z,99096.94
2022-12-12T20:14:03.219Z,99098.02
2022-12-12T20:16:50.617Z,99100.11
2022-12-12T20:19:36.758Z,99102.84
2022-12-12T20:22:23.647Z,99106.52
2022-12-12T20:25:10.449Z,99108.46
2022-12-12T20:27:56.717Z,99113.09
2022-12-12T20:30:43.372Z,99111.59
2022-12-12T20:33:30.666Z,99118.31
2022-12-12T20:36:23.007Z,99117.14
2022-12-12T20:39:12.776Z,99116.83
2022-12-12T20:41:59.393Z,99116.27
2022-12-12T20:44:45.882Z,99121.45
2022-12-12T20:47:32.662Z,99122.47
2022-12-12T20:50:19.209Z,99119.60
2022-12-12T20:53:05.531Z,99132.05
2022-12-12T20:55:51.803Z,99125.73
2022-12-12T20:58:39.209Z,99134.01
2022-12-12T21:01:31.444Z,99136.02
2022-12-12T21:04:18.464Z,99137.90
2022-12-12T21:07:05.164Z,99142.23
2022-12-12T21:09:51.360Z,99145.58
2022-12-12T21:12:37.891Z,99151.46
2022-12-12T21:15:24.837Z,99151.46
2022-12-12T21:18:11.181Z,99154.17
2022-12-12T21:20:57.868Z,99156.89
2022-12-12T21:23:45.206Z,99164.75
2022-12-12T21:26:32.025Z,99167.14
2022-12-12T21:29:19.113Z,99168.71
2022-12-12T21:32:05.904Z,99165.93
2022-12-12T21:34:53.146Z,99168.09
2022-12-12T21:37:40.691Z,99174.17
2022-12-12T21:40:27.769Z,99175.33
2022-12-12T21:43:14.332Z,99176.10
2022-12-12T21:46:04.835Z,99183.14
2022-12-12T21:49:11.010Z,99183.73
2022-12-12T21:51:59.765Z,99185.73
2022-12-12T21:54:46.351Z,99188.21
2022-12-12T21:57:32.949Z,99187.84
2022-12-12T22:00:19.495Z,99190.38
2022-12-12T22:03:09.778Z,99192.00
2022-12-12T22:05:56.560Z,99189.48
2022-12-12T22:08:44.038Z,99191.09
2022-12-12T22:11:40.357Z,99188.93
2022-12-12T22:14:29.819Z,99198.49
2022-12-12T22:17:16.635Z,99204.50
2022-12-12T22:20:03.298Z,99203.34
2022-12-12T22:22:49.991Z,99210.02
2022-12-12T22:25:36.519Z,99215.43
2022-12-12T22:28:23.243Z,99219.67
2022-12-12T22:31:11.125Z,99226.16
2022-12-12T22:34:03.070Z,99225.27
2022-12-12T22:36:52.125Z,99220.49
2022-12-12T22:39:38.527Z,99219.89
2022-12-12T22:42:24.910Z,99221.87
2022-12-12T22:45:11.881Z,99222.17
2022-12-12T22:47:58.358Z,99223.05
2022-12-12T22:50:44.865Z,99228.09
2022-12-12T22:53:31.175Z,99233.16
2022-12-12T22:56:18.356Z,99231.94
2022-12-12T22:59:05.365Z,99233.02
2022-12-12T23:01:51.882Z,99237.52
2022-12-12T23:04:38.492Z,99243.44
2022-12-12T23:07:25.136Z,99248.35
2022-12-12T23:10:11.703Z,99252.55
2022-12-12T23:12:57.961Z,99246.58
2022-12-12T23:15:44.441Z,99252.04
2022-12-12T23:18:30.872Z,99249.73
2022-12-12T23:24:35.787Z,99254.84
2022-12-12T23:27:22.544Z,99259.44
2022-12-12T23:30:09.509Z,99264.54
2022-12-12T23:32:55.975Z,99269.06
2022-12-12T23:35:49.495Z,99270.34
2022-12-12T23:38:36.351Z,99276.09
2022-12-12T23:41:23.483Z,99277.95
2022-12-12T23:44:15.927Z,99279.59
2022-12-12T23:47:02.066Z,99283.38
2022-12-12T23:49:48.232Z,99284.89
2022-12-12T23:52:34.816Z,99287.84
2022-12-12T23:55:21.409Z,99289.91
2022-12-12T23:58:07.848Z,99292.96
